Time;durP1;ratioP1;P1;durP2;ratioP2;P2;SDS_P1;SDS_P2;PMS_P1;PMS_P2;Temp;Humidity;BMP_temperature;BMP_pressure;BME280_temperature;BME280_humidity;BME280_pressure;Samples;Min_cycle;Max_cycle;Signal;HPM_P1;HPM_P2
2021/04/16 00:00:12;;;;;;;8.07;3.85;;;;;;;6.73;100.00;103275.41;5051157;28;20119;-67
2021/04/16 00:02:37;;;;;;;6.18;3.70;;;;;;;6.72;100.00;103273.69;5051612;28;20050;-67
2021/04/16 00:05:05;;;;;;;7.72;3.80;;;;;;;6.74;100.00;103276.25;5051022;28;20483;-67
2021/04/16 00:07:30;;;;;;;4.97;4.13;;;;;;;6.74;100.00;103277.09;5051099;28;20037;-67
2021/04/16 00:09:58;;;;;;;4.85;3.72;;;;;;;6.77;100.00;103270.50;5051087;28;20099;-67
2021/04/16 00:12:24;;;;;;;4.32;3.78;;;;;;;6.76;100.00;103280.50;5050838;28;20037;-67
2021/04/16 00:14:49;;;;;;;6.78;4.25;;;;;;;6.75;100.00;103277.94;5050955;28;20395;-66
2021/04/16 00:17:15;;;;;;;10.85;4.70;;;;;;;6.70;100.00;103273.00;5050989;28;20514;-67
2021/04/16 00:19:41;;;;;;;5.38;3.72;;;;;;;6.67;100.00;103276.03;5050835;28;20044;-67
2021/04/16 00:22:07;;;;;;;4.85;3.85;;;;;;;6.64;100.00;103273.63;5051032;28;20041;-67
2021/04/16 00:24:32;;;;;;;8.00;4.03;;;;;;;6.60;100.00;103274.97;5050920;28;20120;-67
2021/04/16 00:26:58;;;;;;;6.30;4.22;;;;;;;6.59;100.00;103278.66;5050880;28;20509;-67
2021/04/16 00:29:23;;;;;;;7.72;4.20;;;;;;;6.55;100.00;103274.56;5050562;28;20040;-67
2021/04/16 00:31:53;;;;;;;5.35;3.97;;;;;;;6.51;100.00;103271.31;5050745;28;20053;-67
2021/04/16 00:34:22;;;;;;;6.40;4.28;;;;;;;6.48;100.00;103263.47;5049842;28;20415;-67
2021/04/16 00:36:48;;;;;;;7.40;4.00;;;;;;;6.45;100.00;103268.38;5050947;28;20036;-67
2021/04/16 00:39:16;;;;;;;6.18;4.30;;;;;;;6.40;100.00;103268.81;5050688;28;20075;-67
2021/04/16 00:41:42;;;;;;;5.43;4.18;;;;;;;6.37;100.00;103269.13;5050677;28;20490;-67
2021/04/16 00:44:08;;;;;;;7.70;4.85;;;;;;;6.31;100.00;103265.19;5050562;28;20127;-66
2021/04/16 00:46:56;;;;;;;9.68;4.13;;;;;;;6.27;100.00;103258.38;5050756;28;20036;-66
2021/04/16 00:49:28;;;;;;;7.25;3.88;;;;;;;6.22;100.00;103259.81;5050389;28;20147;-67
2021/04/16 00:51:58;;;;;;;6.35;3.97;;;;;;;6.17;100.00;103257.56;5050561;28;20043;-67
2021/04/16 00:54:37;;;;;;;7.38;4.28;;;;;;;6.15;100.00;103258.75;5050518;28;20068;-66
2021/04/16 00:57:05;;;;;;;7.70;4.60;;;;;;;6.13;100.00;103256.19;5049199;28;20036;-66
2021/04/16 00:59:33;;;;;;;5.28;3.65;;;;;;;6.13;100.00;103250.75;5049142;28;20442;-66
2021/04/16 01:02:01;;;;;;;6.80;4.43;;;;;;;6.12;100.00;103254.47;5050456;28;20560;-67
2021/04/16 01:04:31;;;;;;;7.50;4.55;;;;;;;6.12;100.00;103253.63;5050149;28;20033;-67
2021/04/16 01:06:59;;;;;;;6.25;4.13;;;;;;;6.10;100.00;103250.22;5049040;28;20527;-67
2021/04/16 01:09:26;;;;;;;7.93;4.57;;;;;;;6.09;100.00;103253.94;5050270;28;20116;-67
2021/04/16 01:11:53;;;;;;;5.70;4.22;;;;;;;6.07;100.00;103245.91;5050309;28;20124;-66
2021/04/16 01:14:19;;;;;;;5.75;4.18;;;;;;;6.06;100.00;103249.66;5050247;28;20037;-66
2021/04/16 01:16:45;;;;;;;7.78;4.30;;;;;;;6.05;100.00;103248.78;5050571;28;20037;-67
2021/04/16 01:19:32;;;;;;;7.35;4.68;;;;;;;6.05;100.00;103245.22;5049018;28;20125;-67
2021/04/16 01:22:07;;;;;;;8.25;3.88;;;;;;;6.04;100.00;103243.53;5050338;28;20159;-67
2021/04/16 01:24:34;;;;;;;8.20;4.28;;;;;;;6.02;100.00;103242.81;5049955;28;20494;-66
2021/04/16 01:27:10;;;;;;;11.27;4.30;;;;;;;5.98;100.00;103247.72;5050134;28;20037;-67
2021/04/16 01:29:38;;;;;;;7.43;4.22;;;;;;;5.95;100.00;103247.16;5050207;28;20483;-67
2021/04/16 01:32:04;;;;;;;11.52;4.55;;;;;;;5.94;100.00;103245.47;5050533;28;20052;-67
2021/04/16 01:34:30;;;;;;;7.78;4.18;;;;;;;5.93;100.00;103241.91;5049948;28;20582;-67
2021/04/16 01:36:57;;;;;;;6.88;3.90;;;;;;;5.94;100.00;103248.19;5050155;28;20069;-66
2021/04/16 01:39:26;;;;;;;6.40;3.55;;;;;;;5.93;100.00;103243.75;5050086;28;20576;-66
2021/04/16 01:41:52;;;;;;;7.32;3.97;;;;;;;5.92;100.00;103242.06;5049975;28;20493;-67
2021/04/16 01:44:21;;;;;;;9.15;4.55;;;;;;;5.92;100.00;103242.91;5048499;28;20040;-67
2021/04/16 01:47:03;;;;;;;6.22;4.35;;;;;;;5.91;100.00;103245.78;5052705;28;20048;-67
2021/04/16 01:49:35;;;;;;;6.07;4.80;;;;;;;5.91;100.00;103245.78;5053686;28;20064;-67
2021/04/16 01:52:01;;;;;;;8.13;4.53;;;;;;;5.88;100.00;103238.75;5053972;28;20039;-67
2021/04/16 01:54:35;;;;;;;7.15;3.97;;;;;;;5.88;100.00;103241.44;5053528;28;20040;-67
2021/04/16 01:57:08;;;;;;;5.93;4.10;;;;;;;5.87;100.00;103250.59;5053483;28;20040;-67
2021/04/16 01:59:36;;;;;;;5.60;4.10;;;;;;;5.86;100.00;103243.47;5054037;28;20037;-66
2021/04/16 02:02:04;;;;;;;6.28;4.25;;;;;;;5.85;100.00;103247.19;5052109;28;20660;-67
2021/04/16 02:04:31;;;;;;;7.70;4.13;;;;;;;5.85;100.00;103246.34;5053370;28;20037;-66
2021/04/16 02:06:56;;;;;;;7.18;4.72;;;;;;;5.83;100.00;103248.34;5053434;28;20063;-67
2021/04/16 02:09:25;;;;;;;5.72;4.80;;;;;;;5.81;100.00;103255.78;5053491;28;20394;-67
2021/04/16 02:11:51;;;;;;;9.30;4.30;;;;;;;5.80;100.00;103249.50;5053228;28;20032;-67
2021/04/16 02:14:19;;;;;;;7.03;4.18;;;;;;;5.81;100.00;103255.78;5053094;28;20037;-67
2021/04/16 02:16:47;;;;;;;6.78;4.85;;;;;;;5.78;100.00;103256.09;5053152;28;20041;-67
2021/04/16 02:19:13;;;;;;;7.13;4.88;;;;;;;5.76;100.00;103258.97;5053018;28;20044;-67
2021/04/16 02:21:41;;;;;;;6.40;5.32;;;;;;;5.74;100.00;103256.41;5051850;28;20045;-66
2021/04/16 02:24:08;;;;;;;8.57;5.00;;;;;;;5.72;100.00;103257.53;5053001;28;20029;-67
2021/04/16 02:26:34;;;;;;;6.78;4.70;;;;;;;5.69;100.00;103255.13;5052870;28;20078;-67
2021/04/16 02:29:00;;;;;;;9.13;4.80;;;;;;;5.67;100.00;103252.56;5052857;28;20403;-67
2021/04/16 02:31:25;;;;;;;6.50;4.20;;;;;;;5.64;100.00;103250.16;5052885;28;20062;-67
2021/04/16 02:33:51;;;;;;;5.70;4.38;;;;;;;5.64;100.00;103255.59;5052834;28;20033;-67
2021/04/16 02:36:17;;;;;;;8.90;4.85;;;;;;;5.62;100.00;103249.47;5053011;28;20076;-67
2021/04/16 02:38:42;;;;;;;6.10;4.78;;;;;;;5.60;100.00;103253.34;5052877;28;20083;-67
2021/04/16 02:41:08;;;;;;;8.80;4.88;;;;;;;5.58;100.00;103250.78;5052665;28;20080;-67
2021/04/16 02:43:34;;;;;;;10.05;5.63;;;;;;;5.56;100.00;103252.78;5052506;28;20044;-67
2021/04/16 02:46:01;;;;;;;7.15;5.20;;;;;;;5.56;100.00;103252.78;5052924;28;20062;-66
2021/04/16 02:48:27;;;;;;;11.18;5.50;;;;;;;5.56;100.00;103252.78;5052355;28;20156;-66
2021/04/16 02:50:53;;;;;;;8.60;4.95;;;;;;;5.56;100.00;103252.78;5053026;28;20128;-67
2021/04/16 02:53:19;;;;;;;7.00;5.25;;;;;;;5.55;100.00;103251.06;5051288;28;20132;-67
2021/04/16 02:55:46;;;;;;;7.63;4.95;;;;;;;5.52;100.00;103251.34;5052299;28;20048;-67
2021/04/16 02:58:11;;;;;;;12.90;5.45;;;;;;;5.51;100.00;103249.66;5051730;28;20033;-66
2021/04/16 03:00:41;;;;;;;9.10;5.30;;;;;;;5.51;100.00;103249.66;5083637;28;20135;-66
2021/04/16 03:03:07;;;;;;;8.80;5.57;;;;;;;5.51;100.00;103243.38;5051988;28;20128;-67
2021/04/16 03:05:33;;;;;;;7.85;4.88;;;;;;;5.50;100.00;103247.94;5052227;28;20063;-66
2021/04/16 03:07:59;;;;;;;6.70;4.90;;;;;;;5.49;100.00;103246.25;5052096;28;20052;-67
2021/04/16 03:10:29;;;;;;;8.82;5.32;;;;;;;5.48;100.00;103249.94;5052159;28;20036;-67
2021/04/16 03:12:55;;;;;;;7.50;4.90;;;;;;;5.48;100.00;103255.38;5052231;28;20095;-66
2021/04/16 03:15:21;;;;;;;8.63;5.88;;;;;;;5.49;100.00;103239.97;5052291;28;20439;-67
2021/04/16 03:17:48;;;;;;;7.30;5.07;;;;;;;5.47;100.00;103248.25;5051881;28;20032;-66
2021/04/16 03:20:15;;;;;;;9.15;5.90;;;;;;;5.44;100.00;103253.97;5051911;28;20040;-67
2021/04/16 03:22:41;;;;;;;9.85;5.50;;;;;;;5.43;100.00;103249.56;5052086;28;20055;-66
2021/04/16 03:25:09;;;;;;;8.18;5.60;;;;;;;5.41;100.00;103251.56;5051650;28;20499;-66
2021/04/16 03:27:35;;;;;;;9.20;5.60;;;;;;;5.39;100.00;103240.03;5051927;28;20127;-67
2021/04/16 03:30:01;;;;;;;10.13;5.78;;;;;;;5.36;100.00;103240.28;5051863;28;20128;-66
2021/04/16 03:32:28;;;;;;;10.27;5.60;;;;;;;5.33;100.00;103246.03;5051561;28;20055;-67
2021/04/16 03:34:55;;;;;;;7.38;5.70;;;;;;;5.31;100.00;103231.78;5051516;28;20044;-67
2021/04/16 03:37:21;;;;;;;8.18;5.18;;;;;;;5.28;100.00;103238.34;5051733;28;20059;-66
2021/04/16 03:39:46;;;;;;;6.18;5.32;;;;;;;5.27;100.00;103241.19;5050063;28;20487;-67
2021/04/16 03:42:12;;;;;;;7.28;5.15;;;;;;;5.26;100.00;103245.78;5051641;28;20045;-67
2021/04/16 03:44:38;;;;;;;7.97;5.80;;;;;;;5.26;100.00;103253.91;5050155;28;20049;-66
2021/04/16 03:47:03;;;;;;;8.80;5.82;;;;;;;5.24;100.00;103257.75;5051404;28;20033;-67
2021/04/16 03:49:29;;;;;;;11.05;6.47;;;;;;;5.24;100.00;103257.75;5051359;28;20515;-67
2021/04/16 03:52:00;;;;;;;6.78;6.07;;;;;;;5.25;100.00;103254.06;5051504;28;20033;-66
2021/04/16 03:54:27;;;;;;;9.05;6.00;;;;;;;5.25;100.00;103252.19;5051019;28;20028;-66
2021/04/16 03:56:53;;;;;;;7.70;5.53;;;;;;;5.25;100.00;103246.78;5051401;28;20116;-67
2021/04/16 03:59:22;;;;;;;5.68;4.93;;;;;;;5.24;100.00;103250.50;5051432;28;20028;-66
2021/04/16 04:01:48;;;;;;;7.35;5.78;;;;;;;5.22;100.00;103249.78;5051076;28;20060;-67
2021/04/16 04:04:13;;;;;;;11.10;5.70;;;;;;;5.17;100.00;103243.09;5051165;28;20041;-66
2021/04/16 04:06:39;;;;;;;9.27;5.82;;;;;;;5.12;100.00;103249.81;5049817;28;20049;-67
2021/04/16 04:09:06;;;;;;;9.05;4.90;;;;;;;5.08;100.00;103244.84;5049977;28;20132;-66
2021/04/16 04:11:32;;;;;;;10.68;5.38;;;;;;;5.03;100.00;103242.56;5051217;28;20037;-67
2021/04/16 04:14:00;;;;;;;8.35;5.55;;;;;;;5.00;100.00;103250.97;5050881;28;20083;-67
2021/04/16 04:16:27;;;;;;;11.30;5.90;;;;;;;4.97;100.00;103251.25;5051114;28;20541;-67
2021/04/16 04:18:53;;;;;;;7.47;5.05;;;;;;;4.94;100.00;103251.56;5050861;28;20029;-67
2021/04/16 04:21:19;;;;;;;9.50;6.07;;;;;;;4.92;100.00;103258.13;5050961;28;20060;-66
2021/04/16 04:23:44;;;;;;;8.63;5.60;;;;;;;4.91;100.00;103257.28;5050740;28;20128;-67
2021/04/16 04:26:10;;;;;;;11.10;5.90;;;;;;;4.88;100.00;103263.00;5050648;28;20087;-67
2021/04/16 04:28:36;;;;;;;8.63;5.75;;;;;;;4.87;100.00;103266.69;5051011;28;20049;-67
2021/04/16 04:31:02;;;;;;;6.43;5.80;;;;;;;4.85;100.00;103264.09;5050876;28;20487;-66
2021/04/16 04:33:28;;;;;;;6.25;5.63;;;;;;;4.85;100.00;103257.84;5050526;28;20071;-67
2021/04/16 04:35:53;;;;;;;8.82;5.85;;;;;;;4.85;100.00;103257.84;5050740;28;20061;-66
2021/04/16 04:38:20;;;;;;;7.70;5.75;;;;;;;4.85;100.00;103257.84;5050637;28;20029;-66
2021/04/16 04:40:46;;;;;;;11.35;6.93;;;;;;;4.86;100.00;103259.56;5050625;28;20033;-67
2021/04/16 04:43:12;;;;;;;10.23;6.25;;;;;;;4.86;100.00;103259.56;5050710;28;20110;-66
2021/04/16 04:45:38;;;;;;;7.38;5.85;;;;;;;4.87;100.00;103266.69;5049323;28;20120;-66
2021/04/16 04:48:04;;;;;;;6.75;5.93;;;;;;;4.87;100.00;103258.56;5050473;28;20041;-66
2021/04/16 04:50:30;;;;;;;11.43;7.10;;;;;;;4.88;100.00;103260.28;5050543;28;20084;-66
2021/04/16 04:52:56;;;;;;;8.73;5.90;;;;;;;4.89;100.00;103263.84;5050548;28;20086;-66
2021/04/16 04:55:27;;;;;;;12.15;6.78;;;;;;;4.90;100.00;103268.25;5050324;28;20041;-67
2021/04/16 04:57:52;;;;;;;10.93;6.97;;;;;;;4.89;100.00;103275.53;5050508;28;20112;-66
2021/04/16 05:00:19;;;;;;;10.90;7.45;;;;;;;4.88;100.00;103273.81;5050301;28;20063;-67
2021/04/16 05:02:46;;;;;;;15.20;7.63;;;;;;;4.89;100.00;103270.13;5049163;28;20049;-67
2021/04/16 05:05:13;;;;;;;11.93;8.05;;;;;;;4.88;100.00;103273.81;5050801;28;20044;-66
2021/04/16 05:07:39;;;;;;;11.70;8.20;;;;;;;4.88;100.00;103273.81;5050456;28;20507;-67
2021/04/16 05:10:06;;;;;;;10.23;6.75;;;;;;;4.89;100.00;103264.69;5050310;28;20565;-67
2021/04/16 05:12:32;;;;;;;11.55;6.65;;;;;;;4.90;100.00;103271.81;5050346;28;20495;-66
2021/04/16 05:14:57;;;;;;;8.23;6.15;;;;;;;4.92;100.00;103280.66;5050160;28;20037;-66
2021/04/16 05:17:23;;;;;;;11.90;7.20;;;;;;;4.92;100.00;103275.25;5050190;28;20053;-66
2021/04/16 05:19:48;;;;;;;12.05;7.53;;;;;;;4.90;100.00;103271.81;5050400;28;20041;-66
2021/04/16 05:22:15;;;;;;;13.40;6.97;;;;;;;4.90;100.00;103266.41;5053871;28;20037;-67
2021/04/16 05:24:41;;;;;;;8.73;6.60;;;;;;;4.91;100.00;103272.66;5054132;28;20035;-67
2021/04/16 05:27:13;;;;;;;13.50;7.18;;;;;;;4.91;100.00;103284.34;5054192;28;20159;-66
2021/04/16 05:29:38;;;;;;;11.30;7.05;;;;;;;4.90;100.00;103277.25;5053986;28;20471;-67
2021/04/16 05:32:05;;;;;;;13.00;7.00;;;;;;;4.90;100.00;103277.25;5053948;28;20044;-67
2021/04/16 05:34:30;;;;;;;11.77;8.50;;;;;;;4.90;100.00;103276.38;5052591;28;20055;-66
2021/04/16 05:36:56;;;;;;;9.88;7.65;;;;;;;4.89;100.00;103272.81;5054069;28;20041;-67
2021/04/16 05:39:22;;;;;;;13.40;7.80;;;;;;;4.88;100.00;103273.81;5053848;28;20128;-66
2021/04/16 05:41:48;;;;;;;11.52;7.55;;;;;;;4.88;100.00;103272.97;5053986;28;20098;-66
2021/04/16 05:44:14;;;;;;;10.85;7.32;;;;;;;4.88;100.00;103276.53;5053756;28;20045;-66
2021/04/16 05:46:40;;;;;;;13.73;7.35;;;;;;;4.92;100.00;103272.53;5053607;28;20044;-66
2021/04/16 05:49:06;;;;;;;11.88;7.75;;;;;;;4.93;100.00;103276.94;5053632;28;20128;-66
2021/04/16 05:51:32;;;;;;;11.40;7.70;;;;;;;4.95;100.00;103274.09;5053869;28;20043;-67
2021/04/16 05:53:58;;;;;;;14.48;8.90;;;;;;;4.96;100.00;103282.06;5053556;28;20082;-66
2021/04/16 05:56:24;;;;;;;9.90;8.00;;;;;;;4.97;100.00;103278.34;5053965;28;20033;-66
2021/04/16 05:58:49;;;;;;;15.07;8.23;;;;;;;5.01;100.00;103284.31;5053744;28;20029;-67
2021/04/16 06:01:15;;;;;;;13.55;8.45;;;;;;;5.02;100.00;103284.19;5053177;28;20462;-66
2021/04/16 06:03:44;;;;;;;10.70;8.63;;;;;;;5.04;100.00;103284.06;5053244;28;20040;-67
2021/04/16 06:06:09;;;;;;;15.02;9.20;;;;;;;5.05;100.00;103283.91;5053439;28;20128;-66
2021/04/16 06:08:35;;;;;;;17.08;9.52;;;;;;;5.07;100.00;103284.63;5053320;28;20131;-66
2021/04/16 06:11:01;;;;;;;16.48;9.25;;;;;;;5.08;100.00;103280.06;5053209;28;20041;-66
2021/04/16 06:13:28;;;;;;;13.35;8.88;;;;;;;5.08;100.00;103280.91;5053124;28;20065;-67
2021/04/16 06:15:54;;;;;;;19.10;10.70;;;;;;;5.09;100.00;103282.63;5053183;28;20037;-66
2021/04/16 06:18:21;;;;;;;16.13;10.43;;;;;;;5.09;100.00;103271.78;5053180;28;20056;-66
2021/04/16 06:20:47;;;;;;;14.05;10.10;;;;;;;5.11;100.00;103286.03;5053192;28;20049;-66
2021/04/16 06:23:13;;;;;;;19.67;10.23;;;;;;;5.13;100.00;103275.91;5053037;28;20044;-66
2021/04/16 06:25:38;;;;;;;16.95;9.50;;;;;;;5.15;100.00;103276.59;5053034;28;20033;-67
2021/04/16 06:28:06;;;;;;;18.25;9.82;;;;;;;5.19;100.00;103276.28;5052919;28;20039;-66
2021/04/16 06:30:32;;;;;;;16.50;10.63;;;;;;;5.22;100.00;103286.88;5052971;28;20044;-67
2021/04/16 06:33:18;;;;;;;15.95;10.32;;;;;;;5.27;100.00;103279.16;5051866;28;20041;-66
2021/04/16 06:36:05;;;;;;;17.30;10.48;;;;;;;5.33;100.00;103278.53;5052831;28;20060;-66
2021/04/16 06:38:41;;;;;;;21.95;10.68;;;;;;;5.38;100.00;103281.66;5052689;28;20036;-66
2021/04/16 06:41:23;;;;;;;23.63;11.43;;;;;;;5.43;100.00;103279.38;5052908;28;20041;-67
2021/04/16 06:43:55;;;;;;;15.93;10.07;;;;;;;5.48;100.00;103278.91;5052733;28;20033;-66
2021/04/16 06:46:41;;;;;;;15.18;10.77;;;;;;;5.54;100.00;103273.75;5051537;28;20043;-67
2021/04/16 06:49:17;;;;;;;18.35;11.30;;;;;;;5.62;100.00;103279.28;5052744;28;20029;-67
2021/04/16 06:51:56;;;;;;;14.95;11.68;;;;;;;5.70;100.00;103282.09;5051251;28;20395;-67
2021/04/16 06:54:27;;;;;;;17.27;11.45;;;;;;;5.78;100.00;103280.50;5052444;28;20029;-67
2021/04/16 06:56:54;;;;;;;21.17;12.35;;;;;;;5.88;100.00;103279.41;5052795;28;20051;-67
2021/04/16 06:59:29;;;;;;;15.95;11.95;;;;;;;5.98;100.00;103290.25;5052401;28;20036;-67
2021/04/16 07:02:00;;;;;;;21.65;13.68;;;;;;;6.09;100.00;103286.50;5052244;28;20163;-67
2021/04/16 07:04:52;;;;;;;20.15;12.95;;;;;;;6.21;100.00;103291.53;5052467;28;20136;-66
2021/04/16 07:07:25;;;;;;;21.77;12.98;;;;;;;6.33;100.00;103290.31;5052210;28;20048;-66
2021/04/16 07:09:59;;;;;;;22.38;14.30;;;;;;;6.44;100.00;103299.25;5052248;28;20047;-67
2021/04/16 07:12:26;;;;;;;23.95;13.95;;;;;;;6.56;100.00;103300.69;5052377;28;20033;-67
2021/04/16 07:14:56;;;;;;;26.58;15.10;;;;;;;6.65;100.00;103291.63;5051876;28;20032;-67
2021/04/16 07:17:24;;;;;;;21.67;13.10;;;;;;;6.76;100.00;103296.81;5052253;28;20037;-67
2021/04/16 07:19:51;;;;;;;23.58;13.55;;;;;;;6.86;100.00;103297.59;5052242;28;20554;-67
2021/04/16 07:22:19;;;;;;;23.63;14.23;;;;;;;6.99;100.00;103299.91;5052001;28;20052;-66
2021/04/16 07:24:46;;;;;;;21.40;12.32;;;;;;;7.10;100.00;103301.47;5051967;28;20040;-67
2021/04/16 07:27:23;;;;;;;19.65;13.48;;;;;;;7.20;100.00;103305.81;5051997;28;20037;-67
2021/04/16 07:29:54;;;;;;;22.90;13.27;;;;;;;7.31;100.00;103307.44;5050897;28;20079;-67
2021/04/16 07:32:29;;;;;;;22.83;12.60;;;;;;;7.41;100.00;103297.28;5051463;28;20453;-66
2021/04/16 07:34:58;;;;;;;23.73;13.75;;;;;;;7.52;100.00;103293.44;5051860;28;20086;-67
2021/04/16 07:37:42;;;;;;;24.88;12.90;;;;;;;7.65;100.00;103304.72;5051878;28;20032;-67
2021/04/16 07:40:22;;;;;;;27.65;14.65;;;;;;;7.76;100.00;103306.28;5051274;28;20024;-69
2021/04/16 07:42:49;;;;;;;22.23;11.77;;;;;;;7.85;100.00;103305.34;5051184;28;20127;-68
2021/04/16 07:45:17;;;;;;;22.10;12.65;;;;;;;7.97;100.00;103314.03;5051344;28;20437;-67
2021/04/16 07:47:44;;;;;;;18.27;12.00;;;;;;;8.08;100.00;103311.88;5051609;28;20083;-67
2021/04/16 07:50:25;;;;;;;18.92;11.73;;;;;;;8.19;100.00;103302.56;5052076;28;20033;-67
2021/04/16 07:52:51;;;;;;;21.88;12.38;;;;;;;8.29;100.00;103307.84;5039407;28;20099;-66
2021/04/16 07:55:19;;;;;;;26.40;12.68;;;;;;;8.42;100.00;103309.09;5051620;28;20060;-67
2021/04/16 07:58:07;;;;;;;17.20;11.25;;;;;;;8.55;100.00;103305.88;5050111;28;20025;-67
2021/04/16 08:00:34;;;;;;;20.15;11.45;;;;;;;8.67;100.00;103311.84;5051064;28;20049;-67
2021/04/16 08:03:19;;;;;;;21.95;11.55;;;;;;;8.81;100.00;103318.50;5051527;28;20029;-67
2021/04/16 08:05:50;;;;;;;24.15;11.65;;;;;;;8.93;100.00;103306.25;5050968;28;20033;-67
2021/04/16 08:08:31;;;;;;;18.20;11.18;;;;;;;9.02;100.00;103305.19;5050799;28;20025;-67
2021/04/16 08:11:00;;;;;;;17.88;11.07;;;;;;;9.12;100.00;103311.34;5051055;28;20060;-68
2021/04/16 08:13:35;;;;;;;17.52;10.85;;;;;;;9.19;100.00;103301.44;5050778;28;20074;-68
2021/04/16 08:16:21;;;;;;;20.33;10.85;;;;;;;9.27;100.00;103303.31;5051090;28;20111;-67
2021/04/16 08:19:01;;;;;;;15.27;9.73;;;;;;;9.34;100.00;103288.78;5050982;28;20021;-67
2021/04/16 08:21:31;;;;;;;16.40;9.20;;;;;;;9.34;100.00;103296.97;5050394;28;20082;-67
2021/04/16 08:24:05;;;;;;;19.33;10.70;;;;;;;9.38;100.00;103299.38;5050994;28;20446;-67
2021/04/16 08:26:40;;;;;;;19.70;9.02;;;;;;;9.44;100.00;103293.22;5051198;28;20028;-67
2021/04/16 08:29:27;;;;;;;14.55;9.10;;;;;;;9.52;100.00;103295.91;5049797;28;20422;-65
2021/04/16 08:37:01;;;;;;;15.80;10.05;;;;;;;9.83;100.00;103299.53;5068149;28;20933;-64
2021/04/16 08:39:34;;;;;;;18.83;9.48;;;;;;;9.95;100.00;103298.13;5068137;28;20459;-65
2021/04/16 08:42:28;;;;;;;17.33;10.18;;;;;;;10.09;100.00;103298.41;5067778;28;20036;-66
2021/04/16 08:45:04;;;;;;;20.35;9.77;;;;;;;10.19;100.00;103304.50;5067596;28;20045;-65
2021/04/16 08:47:47;;;;;;;15.23;9.60;;;;;;;10.18;100.00;103302.78;5067796;28;20036;-64
2021/04/16 08:50:14;;;;;;;17.90;10.23;;;;;;;10.24;100.00;103307.59;5067249;28;20036;-66
2021/04/16 08:52:56;;;;;;;15.43;9.77;;;;;;;10.22;100.00;103309.63;5067279;28;20033;-65
2021/04/16 08:55:43;;;;;;;14.95;10.23;;;;;;;10.16;100.00;103304.84;5067566;28;20037;-66
2021/04/16 08:58:18;;;;;;;18.15;10.05;;;;;;;10.09;100.00;103309.34;5067306;28;20146;-64
2021/04/16 09:00:48;;;;;;;;;;;;;;;10.09;100.00;103303.88;5067734;28;20159;-65
2021/04/16 09:03:17;;;;;;;16.23;7.85;;;;;;;10.23;100.00;103309.44;5067497;28;20003;-65
2021/04/16 09:06:03;;;;;;;12.13;7.97;;;;;;;10.34;100.00;103304.59;5067247;28;20821;-64
2021/04/16 09:08:45;;;;;;;14.02;7.28;;;;;;;10.51;100.00;103308.94;5067516;28;20037;-65
2021/04/16 09:11:12;;;;;;;13.40;7.57;;;;;;;10.67;100.00;103305.22;5067357;28;20449;-65
2021/04/16 09:13:41;;;;;;;13.52;7.80;;;;;;;10.77;100.00;103297.66;5067156;28;20457;-65
2021/04/16 09:16:15;;;;;;;14.00;8.20;;;;;;;10.91;100.00;103299.56;5067275;28;20028;-65
2021/04/16 09:18:45;;;;;;;12.93;7.97;;;;;;;11.01;100.00;103299.31;5067134;28;20394;-65
2021/04/16 09:21:13;;;;;;;12.38;7.72;;;;;;;11.20;100.00;103297.94;5067153;28;20103;-64
2021/04/16 09:23:39;;;;;;;14.55;7.60;;;;;;;11.28;100.00;103301.44;5067031;28;20390;-66
2021/04/16 09:26:07;;;;;;;14.73;7.55;;;;;;;11.38;100.00;103301.16;5066952;28;20033;-65
2021/04/16 09:28:55;;;;;;;10.82;6.43;;;;;;;11.18;100.00;103301.69;5066810;28;20059;-65
2021/04/16 09:31:24;;;;;;;10.30;6.82;;;;;;;11.39;99.79;103305.59;5067064;28;20025;-65
2021/04/16 09:34:19;;;;;;;12.27;6.80;;;;;;;11.47;99.78;103302.78;5066767;28;20123;-64
2021/04/16 09:36:48;;;;;;;8.68;6.60;;;;;;;11.63;99.08;103301.75;5068041;28;20049;-65
2021/04/16 09:39:36;;;;;;;11.52;6.80;;;;;;;11.84;98.97;103307.34;5066760;28;20044;-65
2021/04/16 09:42:37;;;;;;;10.27;5.85;;;;;;;12.03;90.56;103305.88;5065478;28;20063;-65
2021/04/16 09:45:10;;;;;;;9.18;5.82;;;;;;;12.08;83.11;103309.75;5066477;28;20051;-65
2021/04/16 09:47:45;;;;;;;10.85;5.95;;;;;;;12.10;86.71;103295.84;5057891;28;20041;-65
2021/04/16 09:50:25;;;;;;;10.40;6.30;;;;;;;12.20;84.34;103301.88;5053333;28;20082;-65
2021/04/16 09:53:23;;;;;;;11.15;6.93;;;;;;;12.06;83.71;103305.50;5053384;28;20075;-64
2021/04/16 09:55:49;;;;;;;10.48;6.25;;;;;;;11.78;85.57;103297.97;5053243;28;20039;-65
2021/04/16 09:58:34;;;;;;;10.75;5.95;;;;;;;11.51;84.18;103287.69;5053080;28;20041;-66
2021/04/16 10:01:10;;;;;;;9.95;6.43;;;;;;;11.30;88.06;103290.31;5053121;28;20037;-66
2021/04/16 10:03:47;;;;;;;12.93;6.82;;;;;;;11.35;91.09;103290.59;5053085;28;20451;-65
2021/04/16 10:06:29;;;;;;;13.63;7.45;;;;;;;11.24;93.29;103293.78;5053099;28;20036;-65
2021/04/16 10:09:12;;;;;;;10.43;6.93;;;;;;;11.50;89.88;103285.97;5038511;28;20029;-65
2021/04/16 10:11:51;;;;;;;11.77;6.78;;;;;;;11.72;89.36;103285.00;5049570;28;20052;-66
2021/04/16 10:14:21;;;;;;;12.25;7.68;;;;;;;11.94;86.36;103296.91;5032683;28;20029;-65
2021/04/16 10:16:52;;;;;;;12.90;8.45;;;;;;;12.16;86.48;103297.84;5045934;28;20029;-65
2021/04/16 10:19:23;;;;;;;14.68;8.57;;;;;;;12.34;84.97;103301.00;5044709;28;20033;-64
2021/04/16 10:21:50;;;;;;;14.30;8.23;;;;;;;12.55;86.54;103299.31;5050732;28;20128;-65
2021/04/16 12:41:06;;;;;;;11.25;3.13;;;;;;;14.98;62.08;103215.53;5030400;28;20038;-65
2021/04/16 12:43:34;;;;;;;6.22;2.60;;;;;;;14.96;61.76;103201.13;5030333;28;20467;-65
2021/04/16 12:46:01;;;;;;;10.18;3.50;;;;;;;15.01;63.23;103206.84;5030291;28;20047;-65
2021/04/16 12:48:27;;;;;;;5.18;2.90;;;;;;;15.04;64.39;103203.66;5040955;28;20029;-64
2021/04/16 12:50:52;;;;;;;9.00;3.90;;;;;;;15.06;66.54;103202.38;5050046;28;20094;-66
2021/04/16 12:53:18;;;;;;;10.98;4.38;;;;;;;15.04;73.17;103199.00;5050447;28;20049;-64
2021/04/16 12:55:45;;;;;;;8.20;5.10;;;;;;;15.00;72.46;103206.00;5048428;28;20037;-68
2021/04/16 12:58:19;;;;;;;10.80;4.88;;;;;;;15.00;75.90;103202.38;5049454;28;20132;-67
2021/04/16 13:00:45;;;;;;;8.65;4.80;;;;;;;14.59;77.04;103184.25;5049574;28;20071;-68
2021/04/16 13:03:22;;;;;;;11.20;5.07;;;;;;;14.95;76.31;103193.94;5049625;28;20507;-67
2021/04/16 13:05:49;;;;;;;10.23;5.80;;;;;;;15.13;76.03;103187.75;5049921;28;20044;-68
2021/04/16 13:08:16;;;;;;;10.85;5.25;;;;;;;15.17;77.04;103169.75;5049938;28;20040;-68
2021/04/16 13:10:42;;;;;;;7.57;5.45;;;;;;;15.22;77.82;103173.53;5050054;28;20491;-72
2021/04/16 13:13:08;;;;;;;15.80;6.55;;;;;;;15.13;79.08;103183.09;5048863;28;20044;-69
2021/04/16 13:15:33;;;;;;;8.65;5.45;;;;;;;14.61;79.58;103184.88;5049638;28;20041;-67
2021/04/16 13:18:14;;;;;;;13.50;6.05;;;;;;;14.50;83.71;103187.41;5049697;28;20055;-69
2021/04/16 13:20:44;;;;;;;9.65;5.85;;;;;;;14.11;86.78;103195.34;5035418;28;20028;-65
2021/04/16 13:23:10;;;;;;;11.60;6.00;;;;;;;13.97;88.74;103184.53;5052389;28;20117;-65
2021/04/16 13:25:36;;;;;;;9.73;6.45;;;;;;;14.05;89.94;103193.44;5053986;28;20120;-67
2021/04/16 13:28:03;;;;;;;11.80;6.32;;;;;;;14.23;89.90;103203.84;5053218;28;20040;-66
2021/04/16 13:30:29;;;;;;;10.55;6.18;;;;;;;13.92;89.50;103196.16;5053385;28;20040;-66
2021/04/16 13:32:58;;;;;;;10.30;7.03;;;;;;;13.64;88.97;103195.41;5053023;28;20150;-65
2021/04/16 13:35:29;;;;;;;12.25;7.05;;;;;;;14.06;86.34;103195.16;5052959;28;20053;-67
2021/04/16 13:37:55;;;;;;;9.77;6.53;;;;;;;14.26;86.68;103188.84;5053094;28;20395;-69
2021/04/16 13:40:22;;;;;;;11.70;6.47;;;;;;;14.45;84.53;103193.53;5052885;28;20045;-67
2021/04/16 13:42:48;;;;;;;12.88;7.30;;;;;;;14.52;86.58;103188.88;5053242;28;20184;-65
2021/04/16 13:45:14;;;;;;;12.07;6.25;;;;;;;14.64;79.67;103180.84;5053102;28;20538;-68
2021/04/16 13:47:43;;;;;;;11.95;6.45;;;;;;;14.78;85.12;103177.88;5051178;28;20045;-68
2021/04/16 13:50:12;;;;;;;10.18;6.13;;;;;;;14.76;82.55;103174.50;5052416;28;20040;-68
2021/04/16 13:52:37;;;;;;;11.20;6.68;;;;;;;14.95;81.31;103183.78;5051251;28;20033;-66